Time;durP1;ratioP1;P1;durP2;ratioP2;P2;SDS_P1;SDS_P2;PMS_P1;PMS_P2;Temp;Humidity;BMP_temperature;BMP_pressure;BME280_temperature;BME280_humidity;BME280_pressure;Samples;Min_cycle;Max_cycle;Signal;HPM_P1;HPM_P2
2023/05/13 00:01:26;;;;;;;11.23;6.00;;;13.20;99.90;;;;;;4994432;28;20092;-72
2023/05/13 00:03:52;;;;;;;8.47;6.17;;;13.10;99.90;;;;;;4977595;28;20478;-72
2023/05/13 00:06:18;;;;;;;8.40;5.93;;;13.10;99.90;;;;;;4977605;28;20478;-72
2023/05/13 00:08:44;;;;;;;9.13;6.23;;;13.10;99.90;;;;;;4995092;28;20443;-72
2023/05/13 00:11:09;;;;;;;9.93;6.60;;;13.10;99.90;;;;;;4977410;28;20042;-72
2023/05/13 00:13:35;;;;;;;10.53;7.07;;;13.10;99.90;;;;;;4978098;28;20046;-72
2023/05/13 00:16:02;;;;;;;8.57;5.90;;;13.00;99.90;;;;;;4977420;28;20046;-72
2023/05/13 00:18:27;;;;;;;9.27;5.87;;;13.00;99.90;;;;;;4993360;28;20050;-72
2023/05/13 00:20:55;;;;;;;11.60;6.47;;;13.00;99.90;;;;;;4961253;28;20855;-72
2023/05/13 00:23:21;;;;;;;11.00;6.30;;;13.00;99.90;;;;;;4961294;28;20050;-72
2023/05/13 00:25:46;;;;;;;14.67;5.73;;;13.00;99.90;;;;;;4977304;28;20384;-72
2023/05/13 00:28:13;;;;;;;9.50;6.07;;;13.00;99.90;;;;;;4961140;28;20369;-77
2023/05/13 00:30:44;;;;;;;11.57;6.30;;;12.90;99.90;;;;;;4977297;28;20389;-72
2023/05/13 00:33:10;;;;;;;11.70;6.23;;;12.90;99.90;;;;;;4993358;28;20281;-72
2023/05/13 00:35:36;;;;;;;10.87;6.83;;;12.90;99.90;;;;;;4993508;28;20381;-72
2023/05/13 00:38:02;;;;;;;12.27;7.40;;;12.90;99.90;;;;;;4976926;28;20364;-72
2023/05/13 00:40:28;;;;;;;9.97;6.77;;;12.80;99.90;;;;;;4992641;28;20509;-72
2023/05/13 00:42:54;;;;;;;11.13;6.80;;;12.80;99.90;;;;;;4976937;28;20051;-72
2023/05/13 00:45:20;;;;;;;8.33;6.50;;;12.70;99.90;;;;;;4993007;28;20514;-72
2023/05/13 00:47:46;;;;;;;9.57;7.20;;;12.80;99.90;;;;;;4977615;28;20289;-71
2023/05/13 00:50:13;;;;;;;9.57;7.03;;;12.80;99.90;;;;;;4992813;28;20313;-72
2023/05/13 00:52:41;;;;;;;10.73;7.10;;;12.70;99.90;;;;;;4994159;28;20298;-72
2023/05/13 00:55:08;;;;;;;13.27;7.23;;;12.70;99.90;;;;;;4992937;28;20050;-72
2023/05/13 00:57:36;;;;;;;10.30;7.50;;;12.70;99.90;;;;;;4961552;28;20781;-72
2023/05/13 01:00:04;;;;;;;11.37;7.60;;;12.70;99.90;;;;;;4977106;28;20286;-72
2023/05/13 01:02:50;;;;;;;10.77;7.20;;;12.70;99.90;;;;;;4993638;28;20289;-72
2023/05/13 01:05:34;;;;;;;;;;;12.60;99.90;;;;;;4993674;28;20301;-72
2023/05/13 01:08:32;;;;;;;10.80;8.60;;;12.60;99.90;;;;;;4994385;28;19928;-72
2023/05/13 01:11:07;;;;;;;12.47;6.77;;;12.60;99.90;;;;;;4981940;28;20309;-72
2023/05/13 01:13:41;;;;;;;10.57;7.05;;;12.60;99.90;;;;;;4994616;28;20654;-72
2023/05/13 01:16:31;;;;;;;10.90;7.63;;;12.50;99.90;;;;;;4993189;28;20061;-72
2023/05/13 01:19:27;;;;;;;10.13;6.63;;;12.50;99.90;;;;;;4993106;28;20549;-72
2023/05/13 01:21:54;;;;;;;14.45;7.60;;;12.50;99.90;;;;;;4976956;28;20294;-72
2023/05/13 01:24:20;;;;;;;10.43;6.60;;;12.50;99.90;;;;;;4992494;28;20054;-76
2023/05/13 01:26:46;;;;;;;14.90;8.53;;;12.50;99.90;;;;;;4993410;28;20297;-72
2023/05/13 01:29:12;;;;;;;9.50;7.83;;;12.40;99.90;;;;;;4977505;28;20069;-72
2023/05/13 01:31:39;;;;;;;10.87;7.80;;;12.40;99.90;;;;;;4996110;28;20785;-72
2023/05/13 01:34:09;;;;;;;12.03;8.60;;;12.40;99.90;;;;;;4980066;28;20320;-72
2023/05/13 01:36:36;;;;;;;11.60;8.67;;;12.40;99.90;;;;;;4996426;28;20653;-72
2023/05/13 01:39:03;;;;;;;12.03;8.33;;;12.40;99.90;;;;;;4996937;28;20426;-72
2023/05/13 01:41:28;;;;;;;13.97;8.63;;;12.40;99.90;;;;;;4964937;28;20717;-72
2023/05/13 01:43:54;;;;;;;13.00;8.47;;;12.40;99.90;;;;;;4996152;28;20344;-72
2023/05/13 01:46:20;;;;;;;12.17;8.10;;;12.40;99.90;;;;;;4996283;28;20501;-72
2023/05/13 01:48:46;;;;;;;12.73;8.37;;;12.30;99.90;;;;;;4995953;28;20134;-72
2023/05/13 01:51:11;;;;;;;12.27;8.10;;;12.30;99.90;;;;;;4996641;28;20057;-72
2023/05/13 01:53:37;;;;;;;13.80;7.77;;;12.30;99.90;;;;;;4996841;28;20053;-72
2023/05/13 01:56:03;;;;;;;15.73;9.00;;;12.30;99.90;;;;;;4997101;28;20050;-72
2023/05/13 01:58:29;;;;;;;10.17;7.93;;;12.30;99.90;;;;;;4996018;28;20521;-72
2023/05/13 02:00:55;;;;;;;11.03;7.50;;;12.20;99.90;;;;;;4996235;28;20332;-72
2023/05/13 02:03:20;;;;;;;11.63;7.80;;;12.20;99.90;;;;;;4979730;28;20445;-72
2023/05/13 02:05:47;;;;;;;11.60;7.40;;;12.20;99.90;;;;;;4995687;28;20061;-72
2023/05/13 02:08:13;;;;;;;11.40;8.00;;;12.10;99.90;;;;;;4995925;28;20498;-72
2023/05/13 02:10:39;;;;;;;15.00;8.80;;;12.10;99.90;;;;;;4996230;28;20313;-72
2023/05/13 02:13:04;;;;;;;15.17;7.87;;;12.10;99.90;;;;;;4979642;28;20129;-72
2023/05/13 02:15:30;;;;;;;13.13;7.73;;;12.10;99.90;;;;;;4995674;28;20046;-72
2023/05/13 02:17:56;;;;;;;12.87;7.07;;;12.10;99.90;;;;;;4979784;28;20054;-72
2023/05/13 02:20:21;;;;;;;9.90;7.43;;;12.10;99.90;;;;;;4995437;28;20042;-72
2023/05/13 02:22:47;;;;;;;11.77;7.73;;;12.10;99.90;;;;;;4995817;28;20501;-72
2023/05/13 02:25:13;;;;;;;13.77;8.23;;;12.10;99.90;;;;;;4979437;28;20565;-72
2023/05/13 02:27:39;;;;;;;15.10;7.20;;;12.10;99.90;;;;;;4979317;28;20133;-72
2023/05/13 02:30:05;;;;;;;12.70;7.30;;;12.00;99.90;;;;;;4979117;28;20042;-72
2023/05/13 02:32:31;;;;;;;12.50;8.40;;;12.00;99.90;;;;;;4979263;28;20289;-72
2023/05/13 02:34:57;;;;;;;12.47;7.23;;;12.10;99.90;;;;;;4979023;28;20290;-72
2023/05/13 02:37:23;;;;;;;13.10;7.63;;;12.00;99.90;;;;;;4995210;28;20376;-72
2023/05/13 02:39:49;;;;;;;10.20;7.20;;;12.00;99.90;;;;;;4995203;28;20061;-72
2023/05/13 02:42:14;;;;;;;10.07;7.53;;;12.00;99.90;;;;;;4993981;28;20281;-72
2023/05/13 02:44:40;;;;;;;11.50;7.47;;;12.00;99.90;;;;;;4963673;28;20058;-72
2023/05/13 02:47:06;;;;;;;13.93;7.43;;;12.00;99.90;;;;;;4995213;28;20134;-72
2023/05/13 02:49:32;;;;;;;11.70;8.40;;;12.00;99.90;;;;;;4978779;28;20050;-72
2023/05/13 02:51:57;;;;;;;11.27;7.00;;;12.00;99.90;;;;;;4994885;28;20057;-72
2023/05/13 02:54:23;;;;;;;12.07;7.67;;;12.00;99.90;;;;;;4994817;28;20054;-72
2023/05/13 02:56:49;;;;;;;11.80;7.17;;;11.90;99.90;;;;;;4978770;28;20136;-72
2023/05/13 02:59:15;;;;;;;14.03;7.03;;;12.00;99.90;;;;;;4994691;28;20140;-72
2023/05/13 03:01:40;;;;;;;10.07;6.63;;;12.00;99.90;;;;;;4962888;28;20054;-72
2023/05/13 03:04:06;;;;;;;13.73;6.90;;;11.90;99.90;;;;;;4978680;28;20038;-72
2023/05/13 03:06:32;;;;;;;10.27;6.87;;;11.90;99.90;;;;;;4962507;28;20042;-72
2023/05/13 03:08:57;;;;;;;13.80;7.80;;;11.90;99.90;;;;;;4994697;28;20042;-71
2023/05/13 03:11:23;;;;;;;10.40;7.43;;;11.90;99.90;;;;;;4994917;28;20042;-71
2023/05/13 03:13:49;;;;;;;11.77;6.97;;;11.90;99.90;;;;;;4994451;28;20470;-71
2023/05/13 03:16:15;;;;;;;8.60;6.77;;;11.90;99.90;;;;;;4962421;28;20064;-71
2023/05/13 03:18:40;;;;;;;10.33;6.80;;;11.80;99.90;;;;;;4979135;28;20058;-71
2023/05/13 03:21:06;;;;;;;11.43;7.30;;;11.90;99.90;;;;;;4978348;28;20367;-71
2023/05/13 03:23:32;;;;;;;11.97;7.07;;;11.90;99.90;;;;;;4994711;28;20046;-71
2023/05/13 03:25:58;;;;;;;12.30;7.07;;;11.90;99.90;;;;;;4995216;28;20062;-72
2023/05/13 03:28:24;;;;;;;13.63;7.80;;;11.90;99.90;;;;;;4995143;28;20637;-72
2023/05/13 03:30:50;;;;;;;14.73;7.40;;;11.80;99.90;;;;;;4945955;28;20050;-72
2023/05/13 03:33:16;;;;;;;12.70;6.97;;;11.90;99.90;;;;;;4978654;28;20046;-72
2023/05/13 03:35:41;;;;;;;10.77;7.07;;;11.90;99.90;;;;;;4994567;28;20278;-72
2023/05/13 03:38:07;;;;;;;9.70;6.20;;;11.90;99.90;;;;;;4994444;28;20285;-72
2023/05/13 03:40:33;;;;;;;13.40;6.63;;;11.90;99.90;;;;;;4961934;28;20125;-72
2023/05/13 03:42:59;;;;;;;14.07;7.03;;;11.80;99.90;;;;;;4977934;28;20593;-72
2023/05/13 03:45:25;;;;;;;12.83;6.80;;;11.90;99.90;;;;;;4961830;28;20305;-72
2023/05/13 03:47:50;;;;;;;11.17;7.37;;;11.90;99.90;;;;;;4993541;28;20174;-72
2023/05/13 03:50:16;;;;;;;11.37;6.33;;;11.90;99.90;;;;;;4961374;28;20038;-72
2023/05/13 03:52:42;;;;;;;12.73;6.77;;;11.90;99.90;;;;;;4993227;28;20042;-72
2023/05/13 03:55:08;;;;;;;12.23;6.77;;;11.90;99.90;;;;;;4993551;28;20042;-72
2023/05/13 03:57:34;;;;;;;10.27;6.60;;;11.90;99.90;;;;;;4977625;28;20053;-72
2023/05/13 03:59:59;;;;;;;12.37;7.20;;;11.80;99.90;;;;;;4994024;28;20770;-72
2023/05/13 04:02:25;;;;;;;11.67;6.93;;;11.80;99.90;;;;;;4977601;28;20082;-72
2023/05/13 04:04:51;;;;;;;11.67;7.13;;;11.80;99.90;;;;;;4995481;28;20050;-72
2023/05/13 04:07:17;;;;;;;16.80;7.07;;;11.80;99.90;;;;;;4993514;28;20122;-72
2023/05/13 04:09:42;;;;;;;12.17;6.93;;;11.80;99.90;;;;;;4993504;28;20042;-72
2023/05/13 04:12:08;;;;;;;11.87;6.60;;;11.80;99.90;;;;;;4993699;28;20042;-72
2023/05/13 04:14:34;;;;;;;9.30;6.70;;;11.90;99.90;;;;;;4993086;28;20046;-72
2023/05/13 04:16:59;;;;;;;10.73;6.20;;;11.80;99.90;;;;;;4977286;28;20046;-72
2023/05/13 04:19:25;;;;;;;8.70;6.20;;;11.80;99.90;;;;;;4961484;28;20054;-72
2023/05/13 04:21:51;;;;;;;12.90;6.80;;;11.80;99.90;;;;;;4993700;28;20046;-72
2023/05/13 04:24:17;;;;;;;11.70;6.63;;;11.80;99.90;;;;;;4993357;28;20502;-72
2023/05/13 04:26:42;;;;;;;13.93;6.67;;;11.90;99.90;;;;;;4976669;28;20147;-72
2023/05/13 04:29:08;;;;;;;10.33;6.27;;;11.90;99.90;;;;;;4961105;28;20081;-72
2023/05/13 04:31:34;;;;;;;10.10;6.30;;;11.90;99.90;;;;;;4976784;28;20038;-72
2023/05/13 04:34:00;;;;;;;10.97;6.57;;;11.90;99.90;;;;;;4976740;28;20061;-72
2023/05/13 04:36:26;;;;;;;10.43;6.20;;;11.90;99.90;;;;;;4977763;28;20046;-72
2023/05/13 04:38:51;;;;;;;10.17;6.40;;;12.00;99.90;;;;;;4976925;28;20778;-72
2023/05/13 04:41:17;;;;;;;11.00;6.93;;;12.00;99.90;;;;;;4992738;28;20046;-72
2023/05/13 04:43:43;;;;;;;10.83;6.70;;;12.00;99.90;;;;;;4976627;28;20043;-75
2023/05/13 04:46:09;;;;;;;13.63;7.00;;;12.10;99.90;;;;;;4977722;28;20046;-72
2023/05/13 04:48:34;;;;;;;10.30;6.57;;;12.10;99.90;;;;;;4977440;28;20054;-72
2023/05/13 04:51:00;;;;;;;11.30;6.27;;;12.10;99.90;;;;;;4976544;28;20487;-72
2023/05/13 04:53:26;;;;;;;9.20;6.23;;;12.20;99.90;;;;;;4960946;28;20133;-72
2023/05/13 04:55:59;;;;;;;12.67;7.07;;;12.20;99.90;;;;;;4977041;28;20096;-72
2023/05/13 04:58:25;;;;;;;12.30;6.77;;;12.20;99.90;;;;;;4977657;28;20108;-72
2023/05/13 05:00:51;;;;;;;10.63;7.03;;;12.30;99.90;;;;;;4976769;28;20657;-72
2023/05/13 05:03:17;;;;;;;12.20;6.80;;;12.40;99.90;;;;;;4993671;28;20296;-72
2023/05/13 05:05:42;;;;;;;12.63;6.17;;;12.40;99.90;;;;;;4980185;28;20050;-71
2023/05/13 05:08:08;;;;;;;9.73;6.03;;;12.50;99.90;;;;;;4997931;28;20113;-72
2023/05/13 05:10:34;;;;;;;11.97;6.30;;;12.50;99.90;;;;;;4948557;28;20129;-72
2023/05/13 05:13:00;;;;;;;10.83;6.80;;;12.60;99.90;;;;;;4964683;28;20047;-73
2023/05/13 05:15:25;;;;;;;10.37;6.20;;;12.70;99.90;;;;;;4998319;28;20046;-72
2023/05/13 05:17:51;;;;;;;11.43;6.83;;;12.80;99.90;;;;;;4996513;28;20086;-73
2023/05/13 05:20:17;;;;;;;10.53;6.83;;;12.90;99.90;;;;;;4996775;28;20057;-72
2023/05/13 05:22:43;;;;;;;10.03;5.70;;;13.00;99.90;;;;;;4996745;28;20038;-72
2023/05/13 05:25:09;;;;;;;12.63;6.07;;;13.10;99.90;;;;;;4980342;28;20050;-72
2023/05/13 05:27:41;;;;;;;11.33;6.20;;;13.30;99.90;;;;;;4997692;28;20053;-73
2023/05/13 05:30:09;;;;;;;11.83;6.20;;;13.30;99.90;;;;;;4964232;28;20307;-73
2023/05/13 05:32:34;;;;;;;11.50;5.83;;;13.50;99.90;;;;;;4964790;28;20046;-72
2023/05/13 05:35:02;;;;;;;9.07;5.53;;;13.60;99.90;;;;;;4996362;28;20634;-73
2023/05/13 05:37:29;;;;;;;12.30;6.57;;;13.80;99.90;;;;;;4996211;28;20056;-73
2023/05/13 05:39:55;;;;;;;9.57;5.83;;;13.90;99.90;;;;;;4981126;28;20625;-73
2023/05/13 05:42:21;;;;;;;11.83;5.63;;;14.10;99.90;;;;;;4980210;28;20290;-73
2023/05/13 05:44:46;;;;;;;17.40;6.27;;;14.30;99.90;;;;;;4996143;28;20049;-73
2023/05/13 05:47:12;;;;;;;10.83;5.90;;;14.60;99.90;;;;;;4997015;28;20049;-73
2023/05/13 05:49:38;;;;;;;12.53;5.87;;;15.70;99.90;;;;;;4995974;28;20086;-70
2023/05/13 05:52:04;;;;;;;7.90;5.07;;;17.00;99.90;;;;;;4980281;28;20073;-71
2023/05/13 05:54:30;;;;;;;8.33;5.30;;;18.10;99.90;;;;;;4995861;28;20088;-71
2023/05/13 05:56:55;;;;;;;7.30;4.57;;;19.00;99.90;;;;;;4996064;28;20050;-71
2023/05/13 05:59:21;;;;;;;10.27;5.30;;;19.50;99.90;;;;;;4996567;28;20062;-71
2023/05/13 06:01:47;;;;;;;7.07;5.23;;;20.20;99.90;;;;;;4996030;28;20061;-71
2023/05/13 06:04:13;;;;;;;10.47;5.33;;;20.70;99.90;;;;;;4979827;28;20054;-71
2023/05/13 06:06:39;;;;;;;6.70;4.73;;;21.00;99.90;;;;;;4995931;28;20046;-71
2023/05/13 06:09:05;;;;;;;8.77;5.30;;;21.50;99.90;;;;;;4964213;28;20390;-71
2023/05/13 06:11:31;;;;;;;11.13;4.63;;;21.70;98.00;;;;;;4997280;28;20034;-71
2023/05/13 06:13:56;;;;;;;12.17;4.57;;;21.70;98.20;;;;;;4979545;28;20069;-72
2023/05/13 06:16:23;;;;;;;9.03;4.93;;;21.80;96.80;;;;;;4996189;28;20038;-72
2023/05/13 06:18:48;;;;;;;8.97;4.80;;;21.80;94.00;;;;;;4996769;28;20046;-72
2023/05/13 06:21:14;;;;;;;11.17;4.87;;;22.20;94.90;;;;;;4995661;28;20546;-72
2023/05/13 06:23:40;;;;;;;8.13;4.87;;;22.50;91.80;;;;;;4995431;28;20553;-72
2023/05/13 06:26:05;;;;;;;7.70;5.10;;;22.60;88.10;;;;;;4962972;28;20137;-72
2023/05/13 06:28:31;;;;;;;9.00;4.53;;;23.20;84.70;;;;;;4995081;28;20101;-72
2023/05/13 06:30:57;;;;;;;8.80;4.30;;;23.50;78.20;;;;;;4995192;28;20069;-73
2023/05/13 06:33:23;;;;;;;11.73;4.77;;;24.20;67.60;;;;;;4979750;28;20062;-72
2023/05/13 06:35:48;;;;;;;7.63;4.40;;;24.70;69.30;;;;;;4980023;28;20604;-72
2023/05/13 06:38:18;;;;;;;7.67;4.30;;;25.10;63.70;;;;;;4995065;28;20120;-72
2023/05/13 06:40:44;;;;;;;7.03;4.30;;;25.00;60.50;;;;;;4979064;28;20113;-72
2023/05/13 06:43:15;;;;;;;8.00;4.10;;;24.30;60.90;;;;;;4995911;28;20397;-73
2023/05/13 06:45:41;;;;;;;6.53;4.03;;;24.80;61.30;;;;;;4996101;28;20062;-72
2023/05/13 06:48:07;;;;;;;7.33;4.23;;;24.80;59.40;;;;;;4978509;28;20494;-72
2023/05/13 06:50:33;;;;;;;7.90;4.20;;;24.90;58.10;;;;;;4979621;28;20042;-72
2023/05/13 06:52:59;;;;;;;10.27;4.60;;;24.90;57.50;;;;;;4979642;28;20161;-72
2023/05/13 06:55:25;;;;;;;7.90;4.13;;;25.10;58.20;;;;;;4962531;28;20161;-72
2023/05/13 06:57:51;;;;;;;11.80;4.57;;;25.60;58.40;;;;;;4963592;28;20042;-72
2023/05/13 07:00:17;;;;;;;9.17;4.10;;;25.70;55.90;;;;;;4995035;28;20054;-73
2023/05/13 07:02:43;;;;;;;9.40;4.83;;;26.00;55.70;;;;;;4995768;28;20061;-73
2023/05/13 07:05:10;;;;;;;9.83;4.90;;;26.30;53.80;;;;;;4978400;28;20433;-73
2023/05/13 07:07:36;;;;;;;8.70;4.23;;;26.20;51.50;;;;;;4995154;28;20057;-75
2023/05/13 07:10:02;;;;;;;6.60;3.67;;;26.30;52.70;;;;;;4994947;28;20042;-76
2023/05/13 07:12:28;;;;;;;7.13;4.57;;;26.30;52.40;;;;;;4978571;28;20133;-78
2023/05/13 07:14:53;;;;;;;10.27;4.33;;;26.10;52.30;;;;;;4994752;28;20054;-77
2023/05/13 07:17:19;;;;;;;8.43;3.93;;;26.20;52.30;;;;;;4995647;28;20054;-78
2023/05/13 07:19:46;;;;;;;6.73;4.33;;;26.10;52.60;;;;;;4994470;28;20046;-77
2023/05/13 07:22:12;;;;;;;10.97;4.40;;;26.10;51.20;;;;;;4995259;28;20058;-78
2023/05/13 07:24:37;;;;;;;6.53;4.00;;;26.10;50.50;;;;;;4995163;28;20042;-77
2023/05/13 07:27:03;;;;;;;7.30;3.67;;;26.20;52.10;;;;;;4994652;28;20086;-78
2023/05/13 07:29:31;;;;;;;7.03;4.20;;;26.20;51.30;;;;;;4995468;28;20057;-77
2023/05/13 07:31:56;;;;;;;9.07;4.40;;;26.00;51.50;;;;;;4977962;28;20046;-77
2023/05/13 07:34:22;;;;;;;8.57;3.77;;;26.20;50.30;;;;;;4995675;28;20172;-77
2023/05/13 07:36:48;;;;;;;6.50;3.63;;;26.20;50.90;;;;;;4995030;28;20108;-77
2023/05/13 07:39:13;;;;;;;7.17;4.20;;;26.20;51.10;;;;;;4994241;28;20136;-77
2023/05/13 07:41:39;;;;;;;8.27;4.40;;;26.70;50.90;;;;;;4995682;28;20046;-77
2023/05/13 07:44:10;;;;;;;11.60;4.47;;;27.50;51.00;;;;;;4994027;28;20054;-78
2023/05/13 07:46:36;;;;;;;22.92;5.18;;;27.70;49.90;;;;;;4994837;28;20046;-77
2023/05/13 07:49:05;;;;;;;8.27;4.45;;;27.70;50.00;;;;;;4995601;28;20360;-77
2023/05/13 07:51:31;;;;;;;8.88;4.32;;;27.50;49.80;;;;;;4977639;28;20050;-76
2023/05/13 07:53:57;;;;;;;10.13;4.23;;;27.30;50.00;;;;;;4977822;28;20046;-76
2023/05/13 07:56:22;;;;;;;7.53;4.47;;;27.30;51.20;;;;;;4995197;28;20445;-76
2023/05/13 07:58:49;;;;;;;7.28;4.20;;;26.90;50.10;;;;;;4994867;28;20060;-76
2023/05/13 08:01:15;;;;;;;8.30;4.70;;;27.00;50.00;;;;;;4994842;28;20082;-76
2023/05/13 08:03:41;;;;;;;7.22;4.20;;;27.00;49.00;;;;;;4993711;28;20054;-75
2023/05/13 08:06:06;;;;;;;15.32;4.85;;;26.80;49.40;;;;;;4977212;28;20046;-81
2023/05/13 08:08:32;;;;;;;7.60;4.28;;;26.80;50.40;;;;;;4977453;28;20042;-76
2023/05/13 08:10:58;;;;;;;7.68;4.35;;;26.70;49.90;;;;;;4993167;28;20042;-76
2023/05/13 08:13:24;;;;;;;7.40;3.95;;;26.40;50.40;;;;;;4993505;28;20047;-76
2023/05/13 08:15:51;;;;;;;10.90;4.90;;;26.10;51.00;;;;;;4994223;28;20518;-75
2023/05/13 08:18:17;;;;;;;9.95;5.03;;;26.00;52.00;;;;;;4994400;28;20459;-76
2023/05/13 08:20:43;;;;;;;8.85;4.22;;;25.70;52.30;;;;;;4994558;28;20129;-76
2023/05/13 08:23:08;;;;;;;8.93;4.30;;;25.50;51.40;;;;;;4961394;28;20189;-79
2023/05/13 08:25:34;;;;;;;7.65;4.10;;;24.70;52.80;;;;;;4993231;28;20487;-76
2023/05/13 08:28:02;;;;;;;7.60;3.90;;;24.00;54.40;;;;;;4993218;28;20057;-76
2023/05/13 08:30:27;;;;;;;6.97;4.00;;;23.20;54.60;;;;;;4993535;28;20038;-76
2023/05/13 08:32:53;;;;;;;7.23;3.63;;;22.70;56.40;;;;;;4993241;28;20049;-74
2023/05/13 08:35:19;;;;;;;10.30;4.40;;;22.30;57.60;;;;;;4993311;28;20078;-75
2023/05/13 08:37:45;;;;;;;10.57;4.37;;;21.90;58.70;;;;;;4977329;28;20387;-74
2023/05/13 08:40:11;;;;;;;7.30;4.37;;;21.80;59.50;;;;;;4977080;28;20483;-78
2023/05/13 08:42:38;;;;;;;6.63;3.57;;;21.70;62.00;;;;;;4993249;28;20478;-75
2023/05/13 08:45:07;;;;;;;7.27;3.80;;;21.70;64.10;;;;;;4993509;28;20491;-76
2023/05/13 08:47:36;;;;;;;8.97;4.43;;;21.70;67.20;;;;;;4977537;28;20471;-74
2023/05/13 08:50:02;;;;;;;8.70;4.00;;;21.70;73.20;;;;;;4993600;28;20054;-72
2023/05/13 08:52:28;;;;;;;7.30;3.93;;;21.50;77.50;;;;;;4993722;28;20391;-72
2023/05/13 08:54:57;;;;;;;8.03;4.77;;;21.40;76.60;;;;;;4976918;28;20505;-77
2023/05/13 08:57:23;;;;;;;7.60;3.83;;;21.20;75.80;;;;;;4993311;28;20046;-75
2023/05/13 08:59:50;;;;;;;9.10;4.20;;;21.30;79.70;;;;;;4961079;28;20533;-71
2023/05/13 09:02:16;;;;;;;8.37;4.10;;;21.20;81.00;;;;;;4994031;28;20081;-75
2023/05/13 09:04:42;;;;;;;9.60;4.87;;;21.10;82.40;;;;;;4993064;28;20078;-74
2023/05/13 09:07:08;;;;;;;8.57;4.20;;;21.10;85.80;;;;;;4993829;28;20049;-74
2023/05/13 09:09:34;;;;;;;10.07;4.67;;;21.10;86.70;;;;;;4976769;28;20046;-73
2023/05/13 09:12:00;;;;;;;8.40;4.47;;;20.90;87.90;;;;;;4992672;28;20053;-74
2023/05/13 09:14:32;;;;;;;9.57;5.33;;;20.90;90.90;;;;;;4993265;28;20050;-74
2023/05/13 09:17:01;;;;;;;8.97;4.23;;;20.90;91.70;;;;;;4994491;28;20093;-76
2023/05/13 09:19:26;;;;;;;9.73;4.60;;;20.80;90.30;;;;;;4992647;28;20514;-76
2023/05/13 09:21:53;;;;;;;9.03;4.00;;;20.70;90.20;;;;;;4993823;28;20038;-76
2023/05/13 09:24:20;;;;;;;11.97;4.93;;;20.80;92.70;;;;;;4994610;28;20061;-77
2023/05/13 09:26:48;;;;;;;7.10;4.33;;;20.70;92.10;;;;;;4993906;28;20518;-76
2023/05/13 09:29:22;;;;;;;9.50;5.10;;;20.60;93.10;;;;;;4992612;28;20112;-76
2023/05/13 09:31:53;;;;;;;8.07;4.00;;;20.60;91.10;;;;;;4993740;28;20409;-76
2023/05/13 09:34:33;;;;;;;7.70;4.83;;;20.60;94.40;;;;;;4993356;28;20108;-76
2023/05/13 09:37:03;;;;;;;16.10;6.10;;;20.60;90.90;;;;;;4992306;28;20508;-76
2023/05/13 09:39:40;;;;;;;13.20;4.80;;;20.50;94.00;;;;;;4992767;28;20053;-76
2023/05/13 09:42:17;;;;;;;11.07;4.67;;;20.60;93.20;;;;;;4993555;28;20104;-76
2023/05/13 09:44:44;;;;;;;13.57;5.00;;;20.60;94.40;;;;;;4993009;28;20487;-73
2023/05/13 09:47:13;;;;;;;8.40;4.13;;;20.60;95.40;;;;;;4992519;28;20347;-74
2023/05/13 09:49:44;;;;;;;9.53;4.23;;;20.60;95.80;;;;;;4993567;28;20058;-74
2023/05/13 09:52:15;;;;;;;7.83;4.87;;;20.70;94.10;;;;;;4996294;28;20046;-71
2023/05/13 09:54:40;;;;;;;9.53;4.47;;;20.60;94.50;;;;;;4997279;28;20058;-75
2023/05/13 09:57:06;;;;;;;8.57;4.30;;;20.60;94.90;;;;;;4980043;28;20053;-74
2023/05/13 09:59:33;;;;;;;9.00;4.20;;;20.70;93.80;;;;;;4997033;28;20046;-74
2023/05/13 10:02:03;;;;;;;8.53;4.17;;;20.60;94.00;;;;;;4995909;28;20042;-73
2023/05/13 10:04:29;;;;;;;9.37;4.43;;;20.60;94.30;;;;;;4997586;28;20051;-73
2023/05/13 10:07:00;;;;;;;7.23;4.10;;;20.50;95.00;;;;;;4997811;28;20371;-75
2023/05/13 10:09:29;;;;;;;5.40;3.70;;;20.50;93.60;;;;;;4996056;28;20398;-76
2023/05/13 10:11:57;;;;;;;8.50;4.00;;;20.40;95.50;;;;;;4997444;28;20367;-76
2023/05/13 10:14:23;;;;;;;9.73;3.90;;;20.40;93.30;;;;;;4996941;28;20050;-77
2023/05/13 10:16:50;;;;;;;10.47;4.10;;;20.50;96.00;;;;;;4996850;28;20134;-76
2023/05/13 10:19:17;;;;;;;8.00;4.17;;;20.50;95.40;;;;;;4996811;28;20062;-76
2023/05/13 10:21:43;;;;;;;6.70;4.23;;;20.50;95.60;;;;;;4995638;28;20445;-76
2023/05/13 10:24:09;;;;;;;7.70;4.33;;;20.50;95.50;;;;;;4980223;28;20153;-76
2023/05/13 10:26:36;;;;;;;7.67;4.07;;;20.40;94.80;;;;;;4980257;28;20054;-76
2023/05/13 10:29:02;;;;;;;10.03;4.20;;;20.50;95.00;;;;;;4997197;28;20390;-78
2023/05/13 10:31:29;;;;;;;8.53;4.37;;;20.50;94.40;;;;;;4995339;28;20043;-77
2023/05/13 10:33:55;;;;;;;8.67;4.40;;;20.60;93.80;;;;;;4995665;28;20054;-76
2023/05/13 10:36:32;;;;;;;7.30;5.40;;;20.60;95.70;;;;;;4995543;28;20650;-74
2023/05/13 10:39:11;;;;;;;10.43;5.13;;;20.70;98.60;;;;;;4996466;28;20058;-75
2023/05/13 10:42:07;;;;;;;8.67;4.80;;;20.70;98.80;;;;;;4979575;28;20051;-76
2023/05/13 10:44:34;;;;;;;6.70;5.07;;;20.70;99.80;;;;;;4996222;28;20054;-75
2023/05/13 10:47:01;;;;;;;9.83;5.90;;;20.70;99.90;;;;;;4996326;28;20046;-75
2023/05/13 10:49:34;;;;;;;11.87;5.77;;;20.70;99.90;;;;;;4996253;28;20151;-80
2023/05/13 10:52:07;;;;;;;9.17;6.47;;;20.70;99.90;;;;;;4996225;28;20054;-76
2023/05/13 10:54:39;;;;;;;10.43;5.47;;;20.70;99.90;;;;;;4995528;28;20058;-78
2023/05/13 10:57:06;;;;;;;10.37;5.27;;;20.60;99.90;;;;;;4996247;28;20047;-79
2023/05/13 10:59:34;;;;;;;9.57;5.60;;;20.60;99.90;;;;;;4994967;28;20116;-76
2023/05/13 11:02:02;;;;;;;9.40;5.37;;;20.60;99.90;;;;;;4994927;28;20109;-78
2023/05/13 11:04:28;;;;;;;10.50;5.60;;;20.70;99.90;;;;;;4996246;28;20054;-75
2023/05/13 11:06:53;;;;;;;10.20;5.33;;;20.70;99.90;;;;;;4996393;28;20505;-75
2023/05/13 11:09:19;;;;;;;8.73;5.60;;;20.80;99.90;;;;;;4995933;28;20120;-73
2023/05/13 11:11:52;;;;;;;8.90;4.80;;;20.80;99.90;;;;;;4996246;28;20344;-74
2023/05/13 11:14:20;;;;;;;15.37;5.80;;;20.80;99.90;;;;;;4995729;28;20482;-75
2023/05/13 11:17:01;;;;;;;10.93;7.10;;;20.80;99.90;;;;;;4995736;28;20046;-75
2023/05/13 11:19:29;;;;;;;9.60;5.57;;;20.90;99.90;;;;;;4995989;28;20452;-72
2023/05/13 11:22:09;;;;;;;17.27;7.33;;;20.80;99.90;;;;;;4978135;28;20134;-73
2023/05/13 11:24:35;;;;;;;9.63;6.30;;;20.80;99.90;;;;;;4995737;28;20046;-70
2023/05/13 11:27:14;;;;;;;10.73;6.20;;;20.70;99.90;;;;;;4994505;28;20398;-74
2023/05/13 11:29:51;;;;;;;11.23;5.50;;;20.70;99.90;;;;;;4995812;28;20446;-75
2023/05/13 11:32:47;;;;;;;11.00;6.63;;;20.70;99.90;;;;;;4995528;28;20057;-74
2023/05/13 11:35:19;;;;;;;10.90;6.97;;;20.60;99.90;;;;;;4994843;28;20078;-73
2023/05/13 11:37:45;;;;;;;10.07;7.23;;;20.50;99.90;;;;;;4978186;28;20060;-73
2023/05/13 11:40:19;;;;;;;12.27;7.70;;;20.50;99.90;;;;;;4995290;28;20038;-75
2023/05/13 11:42:46;;;;;;;11.88;7.00;;;20.50;99.90;;;;;;4995344;28;20389;-75
2023/05/13 11:45:12;;;;;;;12.47;7.80;;;20.60;99.90;;;;;;4993318;28;20569;-75
2023/05/13 11:47:38;;;;;;;11.90;8.07;;;20.60;99.90;;;;;;4994899;28;20129;-75
2023/05/13 11:50:26;;;;;;;9.00;5.40;;;20.60;99.90;;;;;;4994046;28;20129;-75
2023/05/13 11:52:54;;;;;;;9.13;6.00;;;20.50;99.90;;;;;;4995624;28;20483;-75
2023/05/13 11:55:35;;;;;;;9.53;5.73;;;20.60;99.90;;;;;;4993994;28;20081;-75
2023/05/13 11:58:00;;;;;;;9.07;6.00;;;20.50;99.90;;;;;;4994982;28;20054;-76
2023/05/13 12:00:33;;;;;;;11.37;6.70;;;20.50;99.90;;;;;;4994939;28;20133;-75
2023/05/13 12:03:01;;;;;;;11.23;6.90;;;20.50;99.90;;;;;;4994841;28;20086;-75
2023/05/13 12:05:27;;;;;;;9.43;5.57;;;20.50;99.90;;;;;;4994364;28;20054;-74
2023/05/13 12:07:57;;;;;;;10.07;6.03;;;20.50;99.90;;;;;;4994795;28;20046;-74
2023/05/13 12:10:23;;;;;;;11.03;6.47;;;20.60;99.90;;;;;;4994366;28;20402;-75
2023/05/13 12:12:50;;;;;;;8.70;6.00;;;20.50;99.90;;;;;;4993402;28;20109;-69
2023/05/13 12:15:17;;;;;;;10.00;5.93;;;20.50;99.90;;;;;;4977475;28;20054;-69
2023/05/13 12:17:44;;;;;;;8.67;5.60;;;20.50;99.90;;;;;;4977486;28;20078;-73
2023/05/13 12:20:15;;;;;;;8.20;4.67;;;20.50;99.90;;;;;;4994669;28;20049;-75
2023/05/13 12:22:43;;;;;;;9.27;5.40;;;20.50;99.90;;;;;;4993346;28;20046;-77
2023/05/13 12:25:31;;;;;;;11.80;4.57;;;20.50;98.60;;;;;;4994519;28;20100;-77
2023/05/13 12:27:58;;;;;;;10.40;5.03;;;20.50;94.00;;;;;;4994459;28;20054;-73
2023/05/13 12:30:24;;;;;;;8.07;4.30;;;20.50;97.60;;;;;;4994340;28;20092;-74
2023/05/13 12:32:50;;;;;;;8.27;4.87;;;20.60;96.90;;;;;;4994944;28;20125;-74
2023/05/13 12:35:17;;;;;;;8.60;4.60;;;20.50;96.50;;;;;;4992713;28;20066;-74
2023/05/13 12:37:43;;;;;;;9.83;5.13;;;20.50;95.20;;;;;;4993643;28;20052;-74
2023/05/13 12:40:13;;;;;;;12.67;4.60;;;20.60;97.00;;;;;;4993328;28;20501;-74
2023/05/13 12:42:44;;;;;;;9.83;5.20;;;20.70;96.80;;;;;;4994315;28;20214;-74